Time;durP1;ratioP1;P1;durP2;ratioP2;P2;SDS_P1;SDS_P2;PMS_P1;PMS_P2;Temp;Humidity;BMP_temperature;BMP_pressure;BME280_temperature;BME280_humidity;BME280_pressure;Samples;Min_cycle;Max_cycle;Signal;HPM_P1;HPM_P2
2023/04/06 00:01:16;;;;;;;0.20;0.20;;;;;;;11.75;36.24;101912.56;5050260;28;20039;-64
2023/04/06 00:03:42;;;;;;;0.20;0.20;;;;;;;12.02;35.45;101921.47;5049729;28;20048;-63
2023/04/06 00:06:07;;;;;;;0.30;0.30;;;;;;;11.73;36.32;101921.88;5050309;28;20044;-63
2023/04/06 00:08:32;;;;;;;0.20;0.20;;;;;;;11.57;36.01;101917.69;5052870;28;20523;-64
2023/04/06 00:10:58;;;;;;;0.25;0.25;;;;;;;11.70;35.95;101916.91;5053475;28;20025;-63
2023/04/06 00:13:24;;;;;;;0.20;0.20;;;;;;;11.77;35.90;101907.81;5053938;28;20224;-64
2023/04/06 00:15:49;;;;;;;0.20;0.20;;;;;;;11.82;36.04;101908.00;5053326;28;20040;-63
2023/04/06 00:18:15;;;;;;;0.22;0.22;;;;;;;11.68;36.35;101900.97;5053691;28;20400;-63
2023/04/06 00:20:40;;;;;;;0.20;0.20;;;;;;;11.59;36.74;101901.34;5053421;28;20128;-63
2023/04/06 00:23:05;;;;;;;0.20;0.20;;;;;;;11.66;36.36;101891.41;5035447;28;20048;-64
2023/04/06 00:25:31;;;;;;;0.20;0.20;;;;;;;11.57;35.85;101885.41;5053725;28;20389;-63
2023/04/06 00:27:56;;;;;;;0.10;0.10;;;;;;;11.52;36.97;101892.44;5053543;28;20090;-66
2023/04/06 00:30:22;;;;;;;0.20;0.20;;;;;;;11.47;37.34;101887.66;5035550;28;20124;-65
2023/04/06 00:32:47;;;;;;;0.20;0.20;;;;;;;11.37;36.36;101885.38;5052960;28;20041;-64
2023/04/06 00:35:13;;;;;;;0.20;0.20;;;;;;;11.43;36.96;101886.41;5052921;28;20041;-64
2023/04/06 00:37:38;;;;;;;0.20;0.20;;;;;;;11.30;37.44;101881.03;5053016;28;20456;-63
2023/04/06 00:40:04;;;;;;;0.20;0.20;;;;;;;11.32;37.46;101878.97;5052711;28;20040;-66
2023/04/06 00:42:30;;;;;;;0.20;0.20;;;;;;;11.31;37.05;101883.50;5052845;28;20037;-65
2023/04/06 00:44:58;;;;;;;0.17;0.17;;;;;;;11.14;37.57;101876.00;5052713;28;20273;-64
2023/04/06 00:47:25;;;;;;;0.20;0.20;;;;;;;11.15;38.16;101872.28;5053012;28;20500;-65
2023/04/06 00:49:51;;;;;;;0.25;0.25;;;;;;;11.31;37.28;101869.22;5053329;28;20392;-63
2023/04/06 00:52:17;;;;;;;0.20;0.20;;;;;;;11.11;37.39;101869.16;5053497;28;20071;-66
2023/04/06 00:54:42;;;;;;;0.25;0.25;;;;;;;11.02;37.90;101872.25;5052896;28;20033;-65
2023/04/06 00:57:08;;;;;;;0.28;0.28;;;;;;;11.10;38.07;101869.38;5052716;28;20037;-63
2023/04/06 00:59:33;;;;;;;0.20;0.20;;;;;;;11.05;37.48;101869.97;5053078;28;20048;-64
2023/04/06 01:01:59;;;;;;;0.30;0.30;;;;;;;11.07;37.96;101859.00;5052687;28;20053;-64
2023/04/06 01:04:24;;;;;;;0.20;0.20;;;;;;;11.06;37.66;101857.38;5053672;28;20111;-65
2023/04/06 01:06:50;;;;;;;0.20;0.20;;;;;;;10.98;37.60;101857.56;5053311;28;20045;-65
2023/04/06 01:09:19;;;;;;;0.28;0.20;;;;;;;10.93;38.57;101857.34;5053143;28;20045;-65
2023/04/06 01:11:44;;;;;;;0.20;0.20;;;;;;;11.17;37.09;101846.84;5052768;28;20052;-67
2023/04/06 01:14:10;;;;;;;0.28;0.28;;;;;;;11.24;37.51;101846.84;5052375;28;20041;-64
2023/04/06 01:16:36;;;;;;;0.20;0.20;;;;;;;11.14;37.68;101841.88;5052932;28;20036;-64
2023/04/06 01:19:08;;;;;;;0.20;0.20;;;;;;;11.33;37.20;101842.94;5052146;28;20103;-63
2023/04/06 01:21:34;;;;;;;0.20;0.20;;;;;;;11.16;37.95;101845.16;5053068;28;20500;-63
2023/04/06 01:23:59;;;;;;;0.28;0.28;;;;;;;11.18;37.62;101839.59;5052827;28;20039;-63
2023/04/06 01:26:25;;;;;;;0.20;0.20;;;;;;;11.17;38.21;101843.31;5035256;28;20052;-63
2023/04/06 01:28:51;;;;;;;0.20;0.20;;;;;;;11.03;38.87;101836.25;5055324;28;20035;-65
2023/04/06 01:31:17;;;;;;;0.20;0.20;;;;;;;10.99;38.84;101832.31;5056356;28;20479;-63
2023/04/06 01:33:42;;;;;;;0.45;0.25;;;;;;;10.94;37.66;101832.09;5052592;28;20043;-64
2023/04/06 01:36:08;;;;;;;0.30;0.30;;;;;;;11.05;37.65;101826.94;5051829;28;20392;-66
2023/04/06 01:38:34;;;;;;;0.10;0.10;;;;;;;10.98;38.56;101830.66;5051781;28;20056;-62
2023/04/06 01:41:00;;;;;;;0.20;0.20;;;;;;;11.07;37.98;101826.72;5052038;28;20025;-63
2023/04/06 01:43:25;;;;;;;0.20;0.20;;;;;;;10.84;37.97;101829.81;5052642;28;20040;-64
2023/04/06 01:45:51;;;;;;;0.20;0.20;;;;;;;10.88;38.11;101825.69;5051846;28;20033;-63
2023/04/06 01:48:16;;;;;;;0.30;0.30;;;;;;;10.81;39.04;101822.13;5052113;28;20115;-64
2023/04/06 01:50:42;;;;;;;0.20;0.20;;;;;;;10.81;37.76;101821.31;5051900;28;20446;-62
2023/04/06 01:53:07;;;;;;;0.20;0.20;;;;;;;10.81;38.69;101822.13;5051804;28;20047;-63
2023/04/06 01:55:33;;;;;;;0.25;0.25;;;;;;;10.74;38.65;101818.59;5034185;28;20040;-63
2023/04/06 01:57:58;;;;;;;0.28;0.28;;;;;;;10.54;38.98;101821.22;5051736;28;20082;-63
2023/04/06 02:00:23;;;;;;;0.30;0.30;;;;;;;10.77;38.49;101817.38;5051624;28;20519;-62
2023/04/06 02:02:49;;;;;;;0.20;0.20;;;;;;;10.69;38.29;101814.88;5051282;28;20040;-64
2023/04/06 02:05:14;;;;;;;0.20;0.20;;;;;;;10.53;39.45;101808.78;5033447;28;20132;-63
2023/04/06 02:07:40;;;;;;;0.20;0.20;;;;;;;10.62;38.66;101809.47;5052051;28;20028;-63
2023/04/06 02:10:11;;;;;;;0.25;0.25;;;;;;;10.79;38.64;101807.25;5051777;28;20408;-64
2023/04/06 02:12:37;;;;;;;0.28;0.28;;;;;;;10.28;38.92;101810.34;5051247;28;20088;-65
2023/04/06 02:15:03;;;;;;;0.28;0.28;;;;;;;10.16;39.77;101800.38;5051171;28;20128;-63
2023/04/06 02:17:28;;;;;;;0.30;0.30;;;;;;;10.04;40.84;101797.41;5051356;28;20072;-65
2023/04/06 02:19:54;;;;;;;0.20;0.20;;;;;;;9.97;41.10;101793.00;5051424;28;20063;-64
2023/04/06 02:22:19;;;;;;;0.30;0.30;;;;;;;10.10;40.25;101799.31;5051875;28;20128;-64
2023/04/06 02:24:45;;;;;;;0.20;0.20;;;;;;;10.00;39.75;101798.00;5033164;28;20135;-64
2023/04/06 02:27:10;;;;;;;0.20;0.20;;;;;;;10.04;40.51;101793.88;5051559;28;20044;-64
2023/04/06 02:29:35;;;;;;;0.30;0.30;;;;;;;10.08;40.00;101793.28;5050540;28;20428;-63
2023/04/06 02:32:01;;;;;;;0.28;0.28;;;;;;;9.95;41.15;101793.22;5050616;28;20144;-64
2023/04/06 02:34:26;;;;;;;0.30;0.30;;;;;;;10.08;40.00;101793.28;5044323;28;20120;-64
2023/04/06 02:36:52;;;;;;;0.30;0.30;;;;;;;9.94;40.56;101786.19;5031378;28;20169;-64
2023/04/06 02:39:17;;;;;;;0.20;0.20;;;;;;;9.92;40.05;101788.25;5031324;28;20113;-63
2023/04/06 02:41:42;;;;;;;0.30;0.30;;;;;;;9.93;40.11;101784.50;5030918;28;20041;-63
2023/04/06 02:44:09;;;;;;;0.30;0.30;;;;;;;10.04;39.90;101783.97;5031021;28;20041;-64
2023/04/06 02:46:35;;;;;;;0.43;0.43;;;;;;;10.00;40.16;101787.25;5031494;28;20478;-63
2023/04/06 02:49:00;;;;;;;0.25;0.25;;;;;;;10.02;40.60;101775.28;5030550;28;20033;-65
2023/04/06 02:51:26;;;;;;;0.28;0.28;;;;;;;10.05;40.40;101782.09;5030936;28;20167;-63
2023/04/06 02:53:52;;;;;;;0.30;0.30;;;;;;;9.77;41.79;101782.13;5013005;28;20120;-63
2023/04/06 02:56:17;;;;;;;0.20;0.20;;;;;;;9.91;41.04;101775.81;5030697;28;20125;-63
2023/04/06 02:58:42;;;;;;;0.22;0.22;;;;;;;9.96;41.21;101783.31;5030774;28;20030;-65
2023/04/06 03:01:08;;;;;;;0.30;0.30;;;;;;;10.00;41.40;101777.34;5031008;28;20026;-64
2023/04/06 03:03:33;;;;;;;0.20;0.20;;;;;;;9.84;41.16;101766.09;5033872;28;20521;-64
2023/04/06 03:06:00;;;;;;;0.20;0.20;;;;;;;9.68;41.93;101762.69;5050778;28;20051;-64
2023/04/06 03:08:25;;;;;;;0.30;0.30;;;;;;;9.91;41.43;101757.03;5050870;28;20037;-62
2023/04/06 03:10:50;;;;;;;0.20;0.20;;;;;;;9.82;41.74;101757.41;5051135;28;20036;-63
2023/04/06 03:13:16;;;;;;;0.30;0.30;;;;;;;9.94;40.59;101758.50;5033010;28;20048;-65
2023/04/06 03:15:41;;;;;;;0.30;0.30;;;;;;;9.87;40.51;101754.97;5050476;28;20045;-64
2023/04/06 03:18:06;;;;;;;0.30;0.30;;;;;;;9.95;40.63;101760.16;5050049;28;20037;-65
2023/04/06 03:20:32;;;;;;;0.20;0.20;;;;;;;9.87;40.94;101760.34;5050391;28;20116;-65
2023/04/06 03:22:58;;;;;;;0.20;0.20;;;;;;;9.98;41.21;101757.09;5050509;28;20021;-62
2023/04/06 03:25:24;;;;;;;0.20;0.20;;;;;;;9.81;41.67;101755.75;5051532;28;20074;-64
2023/04/06 03:27:49;;;;;;;0.30;0.30;;;;;;;9.92;40.75;101760.56;5050238;28;20037;-64
2023/04/06 03:30:17;;;;;;;0.20;0.20;;;;;;;9.76;41.69;101753.66;5050516;28;20037;-63
2023/04/06 03:32:43;;;;;;;0.30;0.30;;;;;;;9.82;41.93;101750.19;5050414;28;20087;-64
2023/04/06 03:35:08;;;;;;;0.25;0.25;;;;;;;10.05;41.37;101755.25;5018409;28;20041;-63
2023/04/06 03:37:34;;;;;;;0.20;0.20;;;;;;;10.22;40.53;101753.94;5031161;28;20087;-63
2023/04/06 03:39:59;;;;;;;0.20;0.20;;;;;;;10.36;39.66;101748.38;5030782;28;20029;-63
2023/04/06 03:42:24;;;;;;;0.20;0.20;;;;;;;10.29;39.55;101746.72;5033195;28;20034;-63
2023/04/06 03:44:50;;;;;;;0.20;0.20;;;;;;;10.35;40.01;101748.59;5034548;28;20041;-63
2023/04/06 03:47:15;;;;;;;0.20;0.20;;;;;;;10.15;40.57;101753.06;5034425;28;20048;-63
2023/04/06 03:49:40;;;;;;;0.20;0.20;;;;;;;10.46;39.81;101739.94;5034607;28;20155;-66
2023/04/06 03:52:06;;;;;;;0.22;0.22;;;;;;;10.33;39.75;101742.59;5035004;28;20021;-65
2023/04/06 03:54:31;;;;;;;0.20;0.20;;;;;;;10.22;39.97;101746.69;5034449;28;20037;-63
2023/04/06 03:56:57;;;;;;;0.20;0.20;;;;;;;10.34;39.22;101749.63;5034540;28;20293;-63
2023/04/06 03:59:22;;;;;;;0.22;0.22;;;;;;;10.34;39.96;101739.69;5034556;28;20408;-65
2023/04/06 04:01:47;;;;;;;0.30;0.30;;;;;;;10.15;39.95;101737.78;5034037;28;20197;-64
2023/04/06 04:04:13;;;;;;;0.20;0.20;;;;;;;10.12;40.21;101742.72;5042941;28;20025;-64
2023/04/06 04:06:38;;;;;;;0.20;0.20;;;;;;;10.29;40.35;101752.09;5053565;28;20043;-63
2023/04/06 04:09:04;;;;;;;0.30;0.30;;;;;;;10.09;40.45;101745.75;5053165;28;20072;-63
2023/04/06 04:11:29;;;;;;;0.30;0.30;;;;;;;10.24;39.96;101741.94;5053428;28;20065;-65
2023/04/06 04:13:55;;;;;;;0.20;0.20;;;;;;;10.30;39.93;101743.81;5053680;28;20029;-65
2023/04/06 04:16:20;;;;;;;0.22;0.22;;;;;;;10.22;39.97;101744.00;5054085;28;20044;-62
2023/04/06 04:18:47;;;;;;;0.20;0.20;;;;;;;10.47;39.26;101747.81;5035482;28;20107;-65
2023/04/06 04:21:12;;;;;;;0.20;0.20;;;;;;;10.19;40.36;101740.88;5053822;28;20505;-65
2023/04/06 04:23:38;;;;;;;0.20;0.20;;;;;;;10.35;39.29;101743.22;5053484;28;20037;-63
2023/04/06 04:26:03;;;;;;;0.22;0.22;;;;;;;10.42;39.40;101741.38;5054069;28;20037;-63
2023/04/06 04:28:29;;;;;;;0.20;0.20;;;;;;;10.38;39.69;101738.28;5054094;28;20063;-63
2023/04/06 04:30:54;;;;;;;0.30;0.30;;;;;;;10.39;39.12;101739.09;5053028;28;20529;-64
2023/04/06 04:33:20;;;;;;;0.30;0.30;;;;;;;10.21;39.34;101728.91;5053283;28;20048;-64
2023/04/06 04:35:45;;;;;;;0.32;0.32;;;;;;;9.74;40.40;101736.91;5052678;28;20051;-64
2023/04/06 04:38:10;;;;;;;0.22;0.22;;;;;;;10.37;39.99;101733.09;5053405;28;20095;-63
2023/04/06 04:40:36;;;;;;;0.20;0.20;;;;;;;10.30;39.74;101734.97;5053610;28;20334;-64
2023/04/06 04:43:01;;;;;;;0.20;0.20;;;;;;;10.35;38.71;101727.09;5034947;28;20243;-64
2023/04/06 04:45:26;;;;;;;0.20;0.20;;;;;;;10.48;39.15;101736.03;5050160;28;20346;-64
2023/04/06 04:47:52;;;;;;;0.25;0.25;;;;;;;10.49;39.46;101724.25;5052186;28;20155;-63
2023/04/06 04:50:17;;;;;;;0.20;0.20;;;;;;;10.26;40.07;101728.31;5052608;28;20128;-65
2023/04/06 04:52:43;;;;;;;0.22;0.22;;;;;;;10.48;40.05;101732.50;5051712;28;20554;-63
2023/04/06 04:55:08;;;;;;;0.35;0.35;;;;;;;10.50;39.26;101728.59;5053222;28;20028;-64
2023/04/06 04:57:33;;;;;;;0.25;0.25;;;;;;;10.44;39.43;101728.56;5052615;28;20037;-65
2023/04/06 04:59:59;;;;;;;0.22;0.22;;;;;;;10.61;39.34;101725.31;5052817;28;20101;-63
2023/04/06 05:02:24;;;;;;;0.20;0.20;;;;;;;10.23;39.79;101726.88;5051911;28;20633;-66
2023/04/06 05:04:50;;;;;;;0.20;0.20;;;;;;;10.37;39.67;101712.44;5034467;28;20037;-64
2023/04/06 05:07:18;;;;;;;0.20;0.20;;;;;;;10.43;39.33;101730.44;5053776;28;20167;-65
2023/04/06 05:09:43;;;;;;;0.30;0.30;;;;;;;10.54;39.15;101726.31;5053526;28;20041;-64
2023/04/06 05:12:09;;;;;;;0.20;0.20;;;;;;;10.40;39.70;101719.25;5056285;28;20052;-63
2023/04/06 05:14:34;;;;;;;0.30;0.30;;;;;;;10.57;39.66;101720.56;5056085;28;20044;-64
2023/04/06 05:17:00;;;;;;;0.22;0.22;;;;;;;10.65;38.98;101715.00;5052860;28;25198;-64
2023/04/06 05:19:25;;;;;;;0.20;0.20;;;;;;;10.82;39.00;101715.41;5052629;28;20024;-64
2023/04/06 05:21:51;;;;;;;0.30;0.30;;;;;;;10.89;38.82;101718.97;5052719;28;20408;-64
2023/04/06 05:24:16;;;;;;;0.20;0.20;;;;;;;10.61;38.71;101711.88;5052884;28;20167;-63
2023/04/06 05:26:41;;;;;;;0.30;0.30;;;;;;;10.78;38.39;101723.06;5052852;28;20032;-64
2023/04/06 05:29:07;;;;;;;0.20;0.20;;;;;;;10.80;38.96;101712.09;5053249;28;20033;-64
2023/04/06 05:31:32;;;;;;;0.32;0.32;;;;;;;10.85;38.52;101717.72;5052876;28;20025;-64
2023/04/06 05:33:58;;;;;;;0.25;0.25;;;;;;;10.67;38.27;101710.25;5048268;28;20033;-65
2023/04/06 05:36:23;;;;;;;0.22;0.22;;;;;;;10.89;38.24;101711.69;5031990;28;20478;-65
2023/04/06 05:38:50;;;;;;;0.20;0.20;;;;;;;11.09;37.87;101703.63;5032869;28;20091;-64
2023/04/06 05:41:15;;;;;;;0.32;0.32;;;;;;;11.06;38.31;101702.19;5050310;28;20060;-64
2023/04/06 05:43:41;;;;;;;0.20;0.20;;;;;;;10.74;38.66;101711.06;5052514;28;20021;-64
2023/04/06 05:46:07;;;;;;;0.28;0.28;;;;;;;10.85;38.23;101707.75;5049863;28;20021;-64
2023/04/06 05:48:32;;;;;;;0.30;0.30;;;;;;;11.18;37.90;101702.41;5039448;28;20040;-64
2023/04/06 05:50:57;;;;;;;0.20;0.20;;;;;;;10.78;38.80;101703.41;5051056;28;20036;-63
2023/04/06 05:53:25;;;;;;;0.30;0.30;;;;;;;10.33;39.12;101707.66;5037853;28;20103;-64
2023/04/06 05:55:50;;;;;;;0.25;0.25;;;;;;;10.63;38.79;101703.63;5048522;28;20029;-69
2023/04/06 05:58:17;;;;;;;0.20;0.20;;;;;;;10.45;38.89;101703.38;5049218;28;20025;-65
2023/04/06 06:00:42;;;;;;;0.20;0.20;;;;;;;10.71;38.91;101705.28;5050710;28;20053;-64
2023/04/06 06:03:08;;;;;;;0.30;0.30;;;;;;;10.97;38.50;101697.22;5050860;28;20123;-64
2023/04/06 06:05:34;;;;;;;0.40;0.40;;;;;;;10.89;38.15;101698.25;5048974;28;20255;-64
2023/04/06 06:08:01;;;;;;;0.30;0.30;;;;;;;11.33;38.23;101698.44;5048466;28;20017;-66
2023/04/06 06:10:27;;;;;;;0.20;0.20;;;;;;;11.48;37.55;101690.97;5051921;28;20025;-66
2023/04/06 06:12:53;;;;;;;0.30;0.30;;;;;;;10.66;38.35;101694.28;5054521;28;20493;-64
2023/04/06 06:15:18;;;;;;;0.20;0.20;;;;;;;10.69;38.69;101705.50;5038432;28;20123;-63
2023/04/06 06:17:44;;;;;;;0.40;0.40;;;;;;;11.73;36.97;101690.31;5058045;28;20033;-63
2023/04/06 06:20:10;;;;;;;0.20;0.20;;;;;;;11.79;36.53;101697.56;5050023;28;20135;-64
2023/04/06 06:22:35;;;;;;;0.30;0.30;;;;;;;11.79;36.69;101687.63;5061446;28;20024;-64
2023/04/06 06:25:00;;;;;;;0.30;0.30;;;;;;;11.60;36.88;101690.31;5038501;28;20056;-64
2023/04/06 06:27:26;;;;;;;0.20;0.20;;;;;;;12.15;36.11;101682.47;5057794;28;20039;-63
2023/04/06 06:29:51;;;;;;;0.20;0.20;;;;;;;12.69;34.94;101689.22;5055380;28;20037;-65
2023/04/06 06:32:17;;;;;;;0.20;0.20;;;;;;;12.44;35.28;101685.66;5055565;28;20040;-67
2023/04/06 06:35:02;;;;;;;0.20;0.20;;;;;;;12.21;36.09;101683.47;5058016;28;20033;-63
2023/04/06 06:37:28;;;;;;;0.20;0.20;;;;;;;11.79;36.54;101689.47;5056097;28;20078;-63
2023/04/06 06:39:53;;;;;;;0.20;0.20;;;;;;;11.48;37.19;101690.97;5051024;28;20458;-64
2023/04/06 06:42:18;;;;;;;0.30;0.30;;;;;;;11.51;37.32;101681.66;5027681;28;20032;-65
2023/04/06 06:44:44;;;;;;;0.30;0.30;;;;;;;11.26;38.18;101684.16;5045525;28;20082;-65
2023/04/06 06:47:09;;;;;;;0.20;0.20;;;;;;;11.78;37.32;101677.03;5050050;28;20033;-62
2023/04/06 06:49:35;;;;;;;0.20;0.20;;;;;;;11.31;38.11;101683.53;5050581;28;20027;-64
2023/04/06 06:52:00;;;;;;;0.28;0.28;;;;;;;11.64;37.82;101683.47;5050084;28;20063;-65
2023/04/06 06:54:25;;;;;;;0.20;0.20;;;;;;;11.22;38.20;101687.50;5050248;28;20111;-64
2023/04/06 06:56:51;;;;;;;0.30;0.30;;;;;;;12.04;37.10;101674.25;5050339;28;20033;-64
2023/04/06 06:59:16;;;;;;;0.22;0.22;;;;;;;11.94;37.48;101685.47;5050389;28;20098;-64
2023/04/06 07:01:42;;;;;;;0.20;0.20;;;;;;;12.71;36.56;101681.72;5050209;28;20029;-66
2023/04/06 07:04:08;;;;;;;0.25;0.25;;;;;;;12.77;36.45;101673.59;5051028;28;20029;-63
2023/04/06 07:06:35;;;;;;;0.20;0.20;;;;;;;12.83;35.94;101671.88;5050072;28;20120;-65
2023/04/06 07:09:02;;;;;;;0.20;0.20;;;;;;;13.31;35.57;101670.22;5050144;28;20037;-64
2023/04/06 07:11:28;;;;;;;0.28;0.28;;;;;;;12.97;36.68;101674.25;5047165;28;20068;-62
2023/04/06 07:13:53;;;;;;;0.20;0.20;;;;;;;13.42;35.73;101664.13;5027808;28;20026;-64
2023/04/06 07:16:19;;;;;;;0.22;0.22;;;;;;;12.83;37.34;101674.59;5022065;28;20082;-63
2023/04/06 07:18:44;;;;;;;0.20;0.20;;;;;;;12.81;37.25;101673.97;5016791;28;20060;-62
2023/04/06 07:21:10;;;;;;;0.20;0.20;;;;;;;12.83;37.21;101667.31;5034328;28;20112;-63
2023/04/06 07:23:35;;;;;;;0.20;0.20;;;;;;;12.87;37.59;101663.16;5036522;28;20107;-64
2023/04/06 07:26:00;;;;;;;0.20;0.20;;;;;;;12.77;38.21;101662.81;5036775;28;20191;-65
2023/04/06 07:28:26;;;;;;;0.20;0.20;;;;;;;12.80;38.35;101669.63;5036509;28;20083;-63
2023/04/06 07:30:51;;;;;;;0.10;0.10;;;;;;;13.02;38.19;101668.19;5036566;28;20033;-64
2023/04/06 07:33:16;;;;;;;0.20;0.20;;;;;;;13.48;37.39;101668.63;5036701;28;20059;-64
2023/04/06 07:35:42;;;;;;;0.20;0.20;;;;;;;13.09;38.89;101658.19;5018594;28;20509;-64
2023/04/06 07:38:07;;;;;;;0.17;0.17;;;;;;;13.67;37.75;101666.72;5017029;28;20033;-65
2023/04/06 07:40:33;;;;;;;0.20;0.20;;;;;;;13.70;37.52;101664.41;5017282;28;20025;-65
2023/04/06 07:42:58;;;;;;;0.20;0.20;;;;;;;14.02;37.47;101662.34;5016793;28;20445;-64
2023/04/06 07:45:24;;;;;;;0.20;0.20;;;;;;;13.56;37.52;101654.78;5017028;28;20064;-64
2023/04/06 07:47:49;;;;;;;0.20;0.20;;;;;;;14.52;36.52;101658.38;5017031;28;20041;-64
2023/04/06 07:50:15;;;;;;;0.10;0.10;;;;;;;14.31;36.71;101653.44;5016651;28;20414;-65
2023/04/06 07:52:41;;;;;;;0.10;0.10;;;;;;;14.39;36.62;101652.28;5023021;28;20017;-67
2023/04/06 07:55:06;;;;;;;0.20;0.20;;;;;;;14.61;35.81;101651.56;5037086;28;20030;-64
2023/04/06 07:57:32;;;;;;;0.10;0.10;;;;;;;14.46;36.72;101653.03;5036751;28;20037;-65
2023/04/06 07:59:57;;;;;;;0.30;0.30;;;;;;;14.91;35.94;101646.91;5036761;28;20034;-63
2023/04/06 08:02:23;;;;;;;0.20;0.20;;;;;;;15.27;35.10;101645.03;5036479;28;20048;-63
2023/04/06 08:04:48;;;;;;;0.10;0.10;;;;;;;15.77;34.01;101635.31;5036863;28;20461;-65
2023/04/06 08:07:14;;;;;;;0.20;0.20;;;;;;;15.96;33.89;101634.06;5037517;28;20032;-65
2023/04/06 08:09:39;;;;;;;0.13;0.13;;;;;;;15.83;34.07;101642.47;5036077;28;20440;-65
2023/04/06 08:12:05;;;;;;;0.10;0.10;;;;;;;16.18;33.64;101642.34;5041252;28;20064;-64
2023/04/06 08:14:30;;;;;;;0.10;0.10;;;;;;;15.62;34.58;101641.25;5056651;28;20077;-65
2023/04/06 08:16:56;;;;;;;0.20;0.20;;;;;;;16.03;33.69;101639.34;5056516;28;20040;-63
2023/04/06 08:19:21;;;;;;;0.20;0.20;;;;;;;15.36;34.44;101639.00;5056735;28;20035;-65
2023/04/06 08:21:47;;;;;;;0.20;0.20;;;;;;;16.13;33.66;101634.13;5056471;28;20513;-63
2023/04/06 08:24:13;;;;;;;0.30;0.30;;;;;;;16.32;33.17;101647.25;5056623;28;20029;-66
2023/04/06 08:26:38;;;;;;;0.30;0.30;;;;;;;16.69;32.29;101640.34;5056066;28;20037;-65
2023/04/06 08:29:07;;;;;;;0.40;0.40;;;;;;;17.03;31.78;101635.72;5052405;28;20033;-63
2023/04/06 08:31:33;;;;;;;0.10;0.10;;;;;;;17.14;31.99;101628.56;5053741;28;20108;-64
2023/04/06 08:33:58;;;;;;;0.20;0.20;;;;;;;16.83;31.81;101634.56;5031447;28;20030;-63
2023/04/06 08:36:24;;;;;;;0.20;0.20;;;;;;;16.75;32.31;101630.38;5033298;28;20052;-65
2023/04/06 08:38:50;;;;;;;0.10;0.10;;;;;;;16.43;32.99;101629.28;5033341;28;20037;-65
2023/04/06 08:41:19;;;;;;;0.28;0.28;;;;;;;16.94;32.51;101629.09;5033309;28;20049;-66
2023/04/06 08:43:49;;;;;;;0.13;0.13;;;;;;;16.13;33.81;101628.72;5033409;28;20033;-64
2023/04/06 08:46:15;;;;;;;0.10;0.10;;;;;;;16.81;32.85;101626.69;5034029;28;20071;-68
2023/04/06 08:48:42;;;;;;;0.20;0.20;;;;;;;17.41;32.03;101626.78;5037556;28;20447;-65
2023/04/06 08:51:11;;;;;;;0.20;0.20;;;;;;;16.90;32.77;101622.50;5053151;28;20397;-64
2023/04/06 08:53:37;;;;;;;0.20;0.20;;;;;;;17.37;31.70;101620.22;5053031;28;20401;-64
2023/04/06 08:56:03;;;;;;;0.10;0.10;;;;;;;17.50;31.15;101622.59;5053028;28;20025;-67
2023/04/06 08:58:36;;;;;;;0.20;0.20;;;;;;;17.14;31.66;101623.13;5053793;28;20543;-66
2023/04/06 09:01:06;;;;;;;0.10;0.10;;;;;;;17.54;31.69;101629.16;5052849;28;20037;-64
2023/04/06 09:03:34;;;;;;;0.20;0.20;;;;;;;17.41;31.61;101615.91;5034269;28;20085;-63
2023/04/06 09:06:00;;;;;;;0.20;0.20;;;;;;;17.31;31.37;101619.31;5052042;28;20037;-67
2023/04/06 09:08:26;;;;;;;0.25;0.25;;;;;;;17.06;31.64;101615.41;5052420;28;20116;-73
2023/04/06 09:10:52;;;;;;;0.13;0.13;;;;;;;17.36;30.90;101622.09;5052071;28;20112;-70
2023/04/06 09:13:18;;;;;;;0.28;0.28;;;;;;;17.79;31.09;101623.22;5052116;28;20077;-67
2023/04/06 09:15:43;;;;;;;0.20;0.20;;;;;;;17.37;31.14;101620.22;5051832;28;20040;-67
2023/04/06 09:18:09;;;;;;;0.20;0.20;;;;;;;17.93;30.82;101621.75;5051866;28;20040;-67
2023/04/06 09:20:34;;;;;;;0.28;0.28;;;;;;;17.97;31.56;101621.00;5032805;28;20029;-64
2023/04/06 09:23:00;;;;;;;0.20;0.20;;;;;;;17.65;31.63;101611.91;5051851;28;20032;-67
2023/04/06 09:25:26;;;;;;;0.20;0.20;;;;;;;18.17;30.45;101613.06;5052020;28;20385;-65
2023/04/06 09:28:04;;;;;;;0.10;0.10;;;;;;;18.51;30.02;101612.88;5051685;28;20558;-65
2023/04/06 09:30:30;;;;;;;0.30;0.30;;;;;;;18.90;30.08;101606.09;5051596;28;20033;-66
2023/04/06 09:32:57;;;;;;;0.10;0.10;;;;;;;18.31;30.28;101618.91;5051657;28;20033;-66
2023/04/06 09:35:23;;;;;;;0.20;0.20;;;;;;;18.67;29.45;101610.00;5051089;28;20044;-66
2023/04/06 09:37:51;;;;;;;0.20;0.20;;;;;;;18.94;29.09;101605.31;5051186;28;20029;-67
2023/04/06 09:40:18;;;;;;;0.10;0.10;;;;;;;18.85;29.41;101604.16;5051248;28;20024;-66
2023/04/06 09:42:48;;;;;;;0.20;0.20;;;;;;;18.71;29.30;101600.22;5051249;28;20037;-68
2023/04/06 09:45:14;;;;;;;0.10;0.10;;;;;;;18.98;29.78;101592.81;5051247;28;20029;-67
2023/04/06 09:47:43;;;;;;;0.20;0.20;;;;;;;18.32;30.22;101590.59;5051104;28;20492;-65
2023/04/06 09:50:11;;;;;;;0.10;0.10;;;;;;;19.04;29.38;101588.22;5051010;28;20102;-68
2023/04/06 09:52:53;;;;;;;0.10;0.10;;;;;;;19.38;28.37;101591.44;5051759;28;20025;-69
2023/04/06 09:55:40;;;;;;;0.20;0.20;;;;;;;18.34;29.36;101594.72;5051385;28;20037;-67
2023/04/06 09:58:09;;;;;;;0.20;0.20;;;;;;;18.34;29.56;101599.31;5051057;28;20040;-69
2023/04/06 10:00:47;;;;;;;0.20;0.20;;;;;;;18.26;28.92;101595.19;5050791;28;20078;-67
2023/04/06 10:03:38;;;;;;;0.10;0.10;;;;;;;18.72;27.67;101588.28;5030827;28;20481;-67
2023/04/06 10:06:07;;;;;;;0.20;0.20;;;;;;;17.71;29.12;101596.50;5031031;28;20115;-67
2023/04/06 10:08:36;;;;;;;0.20;0.20;;;;;;;18.01;29.28;101588.66;5031300;28;20484;-69
2023/04/06 10:11:02;;;;;;;0.20;0.20;;;;;;;18.04;29.48;101590.88;5031324;28;20030;-66
2023/04/06 10:13:29;;;;;;;0.10;0.10;;;;;;;18.52;29.07;101588.09;5014402;28;20050;-65
2023/04/06 10:15:55;;;;;;;0.10;0.10;;;;;;;18.48;29.00;101583.41;5011434;28;20037;-66
2023/04/06 10:18:21;;;;;;;0.10;0.10;;;;;;;19.03;27.76;101581.94;5011431;28;20061;-65
2023/04/06 10:21:15;;;;;;;0.22;0.22;;;;;;;18.62;28.58;101581.91;5025460;28;20104;-66
2023/04/06 10:23:46;;;;;;;0.10;0.10;;;;;;;19.83;27.61;101580.72;5029446;28;20404;-66
2023/04/06 10:26:16;;;;;;;;;;;;;;;20.67;26.07;101583.88;5031589;28;20042;-67
2023/04/06 10:28:43;;;;;;;0.10;0.10;;;;;;;20.15;26.68;101576.69;5030355;28;19920;-66
2023/04/06 10:31:08;;;;;;;0.20;0.20;;;;;;;19.30;26.32;101574.47;5034478;28;20028;-68
2023/04/06 10:33:34;;;;;;;0.20;0.20;;;;;;;19.44;27.21;101576.75;5031608;28;20110;-67
2023/04/06 10:36:21;;;;;;;0.10;0.10;;;;;;;19.97;26.76;101568.19;5030698;28;20030;-68
2023/04/06 10:38:47;;;;;;;0.20;0.20;;;;;;;19.91;26.48;101572.81;5030715;28;20041;-69
2023/04/06 10:41:13;;;;;;;0.20;0.20;;;;;;;19.17;27.26;101574.13;5030326;28;20041;-67
2023/04/06 10:43:40;;;;;;;0.20;0.20;;;;;;;20.22;26.86;101575.66;5031424;28;20025;-67
2023/04/06 10:46:09;;;;;;;0.20;0.20;;;;;;;18.97;27.57;101565.81;5051424;28;20033;-68
2023/04/06 10:48:39;;;;;;;0.10;0.10;;;;;;;19.19;27.26;101567.34;5050813;28;20052;-69
2023/04/06 10:51:15;;;;;;;0.20;0.20;;;;;;;19.49;27.15;101560.41;5050353;28;20132;-67
2023/04/06 10:53:45;;;;;;;0.10;0.10;;;;;;;19.62;27.48;101557.19;5050349;28;20599;-69
2023/04/06 10:56:13;;;;;;;0.10;0.10;;;;;;;19.30;28.40;101566.28;5050074;28;20051;-66
2023/04/06 10:58:45;;;;;;;0.20;0.20;;;;;;;19.44;28.37;101572.09;5050629;28;20028;-67
2023/04/06 11:01:11;;;;;;;0.20;0.20;;;;;;;19.06;28.87;101567.00;5062504;28;20048;-66
2023/04/06 11:04:13;;;;;;;0.20;0.20;;;;;;;18.78;29.69;101570.06;5070202;28;20044;-67
2023/04/06 11:06:38;;;;;;;0.20;0.20;;;;;;;19.27;28.41;101563.28;4968960;28;20579;-66
2023/04/06 11:09:04;;;;;;;0.20;0.20;;;;;;;18.83;28.88;101562.75;4968855;28;20039;-67
2023/04/06 11:11:29;;;;;;;0.10;0.10;;;;;;;18.78;29.71;101570.88;4957868;28;20074;-67
2023/04/06 11:13:57;;;;;;;0.10;0.10;;;;;;;19.87;29.36;101568.19;4936826;29;20653;-66
2023/04/06 11:16:27;;;;;;;0.10;0.10;;;;;;;19.90;28.45;101564.91;4931457;29;20500;-66
2023/04/06 11:18:56;;;;;;;;;;;;;;;20.30;27.68;101567.75;4936303;29;20054;-68
2023/04/06 11:21:43;;;;;;;0.20;0.20;;;;;;;19.58;29.54;101570.53;4930799;29;20409;-68
2023/04/06 11:24:11;;;;;;;0.10;0.10;;;;;;;20.28;28.32;101566.38;4930228;29;20408;-67